createdAt,value
2023-05-14T00:00:42.234Z,15.33
2023-05-14T00:03:08.924Z,15.33
2023-05-14T00:05:35.682Z,15.25
2023-05-14T00:08:02.444Z,15.34
2023-05-14T00:10:28.977Z,15.28
2023-05-14T00:12:55.662Z,15.20
2023-05-14T00:15:22.341Z,14.69
2023-05-14T00:17:48.915Z,15.05
2023-05-14T00:20:15.594Z,14.94
2023-05-14T00:22:42.147Z,14.89
2023-05-14T00:25:09.104Z,14.96
2023-05-14T00:27:37.765Z,14.88
2023-05-14T00:30:06.975Z,14.76
2023-05-14T00:32:34.014Z,14.35
2023-05-14T00:35:02.923Z,14.97
2023-05-14T00:37:29.533Z,14.47
2023-05-14T00:39:56.069Z,14.80
2023-05-14T00:42:22.674Z,14.92
2023-05-14T00:44:49.194Z,14.86
2023-05-14T00:47:15.926Z,14.63
2023-05-14T00:49:43.166Z,14.71
2023-05-14T00:52:11.340Z,14.67
2023-05-14T00:54:37.950Z,14.40
2023-05-14T00:57:06.594Z,14.39
2023-05-14T00:59:33.392Z,13.87
2023-05-14T01:02:00.062Z,14.27
2023-05-14T01:04:27.145Z,14.19
2023-05-14T01:07:12.717Z,14.25
2023-05-14T01:09:50.176Z,14.22
2023-05-14T01:12:40.359Z,14.15
2023-05-14T01:15:12.484Z,14.25
2023-05-14T01:17:45.346Z,14.13
2023-05-14T01:20:12.698Z,14.10
2023-05-14T01:22:39.237Z,14.11
2023-05-14T01:25:06.623Z,14.03
2023-05-14T01:27:47.286Z,14.06
2023-05-14T01:30:19.779Z,13.98
2023-05-14T01:32:51.155Z,13.90
2023-05-14T01:35:18.838Z,13.91
2023-05-14T01:37:47.509Z,13.60
2023-05-14T01:40:14.429Z,13.67
2023-05-14T01:42:41.607Z,13.83
2023-05-14T01:45:08.740Z,13.82
2023-05-14T01:47:35.457Z,13.24
2023-05-14T01:50:02.110Z,13.51
2023-05-14T01:52:28.679Z,13.86
2023-05-14T01:54:55.361Z,13.82
2023-05-14T01:57:21.922Z,13.81
2023-05-14T02:02:17.299Z,13.88
2023-05-14T02:04:44.337Z,13.44
2023-05-14T02:07:10.912Z,13.86
2023-05-14T02:09:37.515Z,13.81
2023-05-14T02:12:04.333Z,13.51
2023-05-14T02:14:31.023Z,13.59
2023-05-14T02:16:57.666Z,13.67
2023-05-14T02:19:24.502Z,13.47
2023-05-14T02:21:51.044Z,13.44
2023-05-14T02:24:17.631Z,13.24
2023-05-14T02:26:44.179Z,13.31
2023-05-14T02:29:11.496Z,13.20
2023-05-14T02:31:38.092Z,13.14
2023-05-14T02:34:06.687Z,13.03
2023-05-14T02:36:33.603Z,13.01
2023-05-14T02:39:01.102Z,12.99
2023-05-14T02:41:27.953Z,12.48
2023-05-14T02:43:54.869Z,12.92
2023-05-14T02:46:21.740Z,12.96
2023-05-14T02:48:48.300Z,12.93
2023-05-14T02:51:14.804Z,12.85
2023-05-14T02:53:41.525Z,12.78
2023-05-14T02:56:08.172Z,12.73
2023-05-14T02:58:34.788Z,12.71
2023-05-14T03:01:01.414Z,12.60
2023-05-14T03:03:30.168Z,12.12
2023-05-14T03:05:57.414Z,11.89
2023-05-14T03:08:24.099Z,12.17
2023-05-14T03:10:50.697Z,12.18
2023-05-14T03:13:19.878Z,12.20
2023-05-14T03:15:47.194Z,12.03
2023-05-14T03:18:14.200Z,12.08
2023-05-14T03:20:41.467Z,11.45
2023-05-14T03:23:08.085Z,11.12
2023-05-14T03:25:34.706Z,11.70
2023-05-14T03:28:01.242Z,11.30
2023-05-14T03:30:27.920Z,11.73
2023-05-14T03:32:54.512Z,11.63
2023-05-14T03:35:21.083Z,11.53
2023-05-14T03:37:47.582Z,11.46
2023-05-14T03:40:14.138Z,11.53
2023-05-14T03:42:42.963Z,11.48
2023-05-14T03:45:10.958Z,11.41
2023-05-14T03:47:37.928Z,10.90
2023-05-14T03:50:06.416Z,9.88
2023-05-14T03:52:33.289Z,11.28
2023-05-14T03:54:59.878Z,11.31
2023-05-14T03:57:26.405Z,11.27
2023-05-14T03:59:53.000Z,11.21
2023-05-14T04:02:19.530Z,11.30
2023-05-14T04:04:47.007Z,11.23
2023-05-14T04:07:17.377Z,11.20
2023-05-14T04:09:43.929Z,11.22
2023-05-14T04:12:11.681Z,11.12
2023-05-14T04:14:38.663Z,11.29
2023-05-14T04:17:05.356Z,11.26
2023-05-14T04:19:31.913Z,11.40
2023-05-14T04:21:58.476Z,11.36
2023-05-14T04:24:25.126Z,11.49
2023-05-14T04:26:51.662Z,10.99
2023-05-14T04:29:18.221Z,11.54
2023-05-14T04:31:44.921Z,11.51
2023-05-14T04:34:11.591Z,11.59
2023-05-14T04:36:38.156Z,11.37
2023-05-14T04:39:05.951Z,11.67
2023-05-14T04:41:33.305Z,11.61
2023-05-14T04:44:01.786Z,11.28
2023-05-14T04:46:28.827Z,11.23
2023-05-14T04:48:56.467Z,11.89
2023-05-14T04:51:23.795Z,11.68
2023-05-14T04:53:50.412Z,12.05
2023-05-14T04:56:16.993Z,12.10
2023-05-14T04:58:43.522Z,11.66
2023-05-14T05:01:10.149Z,11.77
2023-05-14T05:03:36.788Z,12.36
2023-05-14T05:06:03.535Z,12.32
2023-05-14T05:08:30.792Z,12.63
2023-05-14T05:10:57.334Z,12.65
2023-05-14T05:13:23.884Z,12.76
2023-05-14T05:15:51.079Z,12.94
2023-05-14T05:18:17.710Z,12.51
2023-05-14T05:20:44.227Z,13.19
2023-05-14T05:23:10.963Z,13.20
2023-05-14T05:25:37.563Z,13.45
2023-05-14T05:28:04.197Z,13.50
2023-05-14T05:30:30.775Z,13.72
2023-05-14T05:32:57.639Z,13.86
2023-05-14T05:35:24.583Z,13.83
2023-05-14T05:37:51.141Z,13.98
2023-05-14T05:40:17.904Z,14.29
2023-05-14T05:42:44.463Z,14.43
2023-05-14T05:45:11.264Z,14.58
2023-05-14T05:47:37.870Z,14.11
2023-05-14T05:50:04.969Z,15.53
2023-05-14T05:52:31.605Z,16.02
2023-05-14T05:54:58.268Z,15.90
2023-05-14T05:57:27.058Z,16.51
2023-05-14T05:59:53.809Z,16.95
2023-05-14T06:02:20.660Z,17.05
2023-05-14T06:04:47.303Z,17.17
2023-05-14T06:07:13.830Z,17.56
2023-05-14T06:09:40.406Z,17.60
2023-05-14T06:12:07.341Z,17.90
2023-05-14T06:14:33.859Z,18.20
2023-05-14T06:17:00.910Z,18.75
2023-05-14T06:19:27.513Z,18.97
2023-05-14T06:21:54.017Z,19.40
2023-05-14T06:24:21.076Z,19.48
2023-05-14T06:26:48.805Z,19.12
2023-05-14T06:29:15.415Z,19.57
2023-05-14T06:31:42.070Z,19.89
2023-05-14T06:34:09.128Z,20.20
2023-05-14T06:36:35.636Z,20.31
2023-05-14T06:39:02.157Z,21.07
2023-05-14T06:41:29.568Z,21.41
2023-05-14T06:43:56.081Z,21.05
2023-05-14T06:46:22.647Z,21.01
2023-05-14T06:48:49.315Z,20.97
2023-05-14T06:51:16.881Z,21.39
2023-05-14T06:53:43.462Z,21.73
2023-05-14T06:56:09.988Z,22.11
2023-05-14T06:58:36.482Z,22.42
2023-05-14T07:01:03.141Z,22.41
2023-05-14T07:03:29.715Z,22.40
2023-05-14T07:05:56.220Z,22.53
2023-05-14T07:08:22.782Z,22.59
2023-05-14T07:10:49.317Z,22.77
2023-05-14T07:13:15.849Z,22.87
2023-05-14T07:15:42.399Z,22.33
2023-05-14T07:18:08.950Z,22.33
2023-05-14T07:20:35.686Z,22.63
2023-05-14T07:23:02.296Z,22.71
2023-05-14T07:25:28.794Z,22.86
2023-05-14T07:27:55.752Z,23.22
2023-05-14T07:30:22.498Z,23.20
2023-05-14T07:32:49.292Z,22.92
2023-05-14T07:35:16.121Z,23.21
2023-05-14T07:37:42.991Z,22.83
2023-05-14T07:40:09.932Z,22.88
2023-05-14T07:42:37.443Z,22.99
2023-05-14T07:45:05.291Z,23.04
2023-05-14T07:47:32.404Z,22.37
2023-05-14T07:49:59.232Z,22.04
2023-05-14T07:52:25.827Z,22.81
2023-05-14T07:54:52.685Z,23.06
2023-05-14T07:57:20.014Z,23.09
2023-05-14T07:59:47.769Z,23.53
2023-05-14T08:02:16.060Z,23.36
2023-05-14T08:04:43.010Z,23.23
2023-05-14T08:07:09.931Z,23.79
2023-05-14T08:09:36.802Z,23.70
2023-05-14T08:12:03.941Z,23.30
2023-05-14T08:14:30.500Z,23.49
2023-05-14T08:16:57.194Z,23.80
2023-05-14T08:19:24.495Z,23.57
2023-05-14T08:21:51.421Z,23.21
2023-05-14T08:24:18.897Z,23.23
2023-05-14T08:26:45.532Z,22.96
2023-05-14T08:29:13.442Z,23.48
2023-05-14T08:31:42.219Z,23.55
2023-05-14T08:34:08.835Z,23.65
2023-05-14T08:36:35.465Z,23.54
2023-05-14T08:39:01.995Z,24.12
2023-05-14T08:41:28.891Z,24.04
2023-05-14T08:44:14.092Z,24.05
2023-05-14T08:46:41.550Z,24.41
2023-05-14T08:49:31.823Z,24.86
2023-05-14T08:51:59.608Z,24.93
2023-05-14T08:54:27.091Z,25.04
2023-05-14T08:56:53.966Z,24.52
2023-05-14T08:59:20.667Z,24.99
2023-05-14T09:01:51.565Z,24.48
2023-05-14T09:04:22.165Z,24.28
2023-05-14T09:06:51.093Z,24.58
2023-05-14T09:09:18.295Z,24.92
2023-05-14T09:11:50.056Z,24.15
2023-05-14T09:14:17.150Z,24.30
2023-05-14T09:16:49.092Z,25.01
2023-05-14T09:19:18.859Z,25.17
2023-05-14T09:21:46.148Z,25.14
2023-05-14T09:24:24.102Z,25.37
2023-05-14T09:26:54.677Z,24.89
2023-05-14T09:29:21.369Z,25.20
2023-05-14T09:31:51.417Z,25.30
2023-05-14T09:34:32.137Z,24.87
2023-05-14T09:37:01.677Z,25.87
2023-05-14T09:39:29.405Z,26.03
2023-05-14T09:41:56.957Z,26.25
2023-05-14T09:44:24.313Z,26.53
2023-05-14T09:46:51.656Z,26.83
2023-05-14T09:49:18.666Z,27.51
2023-05-14T09:51:45.305Z,27.73
2023-05-14T09:54:12.061Z,28.16
2023-05-14T09:56:39.622Z,28.54
2023-05-14T09:59:06.324Z,28.51
2023-05-14T10:01:33.551Z,28.80
2023-05-14T10:04:01.091Z,28.75
2023-05-14T10:06:30.446Z,29.00
2023-05-14T10:09:01.895Z,29.44
2023-05-14T10:11:31.781Z,28.89
2023-05-14T10:14:20.704Z,27.68
2023-05-14T10:16:50.745Z,27.42
2023-05-14T10:19:20.753Z,28.25
2023-05-14T10:21:58.086Z,28.73
2023-05-14T10:24:25.212Z,28.99
2023-05-14T10:26:52.127Z,29.13
2023-05-14T10:29:18.691Z,29.24
2023-05-14T10:31:51.208Z,29.44
2023-05-14T10:34:37.903Z,29.68
2023-05-14T10:37:25.493Z,29.95
2023-05-14T10:40:08.201Z,29.67
2023-05-14T10:42:43.413Z,29.52
2023-05-14T10:45:12.548Z,30.26
2023-05-14T10:47:42.536Z,30.71
2023-05-14T10:50:11.885Z,30.59
2023-05-14T10:52:42.309Z,30.60
2023-05-14T10:55:10.334Z,30.34
2023-05-14T10:57:42.132Z,29.89
2023-05-14T11:00:09.205Z,30.68
2023-05-14T11:02:38.155Z,31.69
2023-05-14T11:05:17.093Z,32.30
2023-05-14T11:07:45.421Z,32.51
2023-05-14T11:10:14.588Z,33.51
2023-05-14T11:12:43.832Z,33.50
2023-05-14T11:15:16.169Z,33.57
2023-05-14T11:17:44.387Z,33.27
2023-05-14T11:20:11.969Z,33.57
2023-05-14T11:22:41.326Z,33.79
2023-05-14T11:25:09.763Z,34.21
2023-05-14T11:27:39.434Z,34.09
2023-05-14T11:30:13.262Z,34.43
2023-05-14T11:32:40.806Z,34.92
2023-05-14T11:35:07.747Z,35.03
2023-05-14T11:37:34.340Z,34.35
2023-05-14T11:40:01.696Z,32.83
2023-05-14T11:42:28.361Z,33.25
2023-05-14T11:44:55.106Z,32.67
2023-05-14T11:47:22.539Z,32.91
2023-05-14T11:49:49.586Z,34.42
2023-05-14T11:52:19.350Z,34.21
2023-05-14T11:54:46.316Z,34.36
2023-05-14T11:57:16.167Z,34.02
2023-05-14T11:59:43.159Z,31.91
2023-05-14T12:02:17.668Z,30.55
2023-05-14T12:04:49.925Z,29.45
2023-05-14T12:07:16.741Z,28.76
2023-05-14T12:09:49.761Z,28.09
2023-05-14T12:12:21.980Z,28.20
2023-05-14T12:14:49.456Z,29.76
2023-05-14T12:17:23.409Z,29.89
2023-05-14T12:19:53.397Z,29.41
2023-05-14T12:22:22.445Z,27.95
2023-05-14T12:24:57.132Z,28.98
2023-05-14T12:27:28.012Z,29.32
2023-05-14T12:32:35.812Z,27.41
2023-05-14T12:35:02.484Z,27.28
2023-05-14T12:37:31.122Z,27.06
2023-05-14T12:39:57.913Z,27.11
2023-05-14T12:42:24.533Z,27.51
2023-05-14T12:44:51.100Z,27.33
2023-05-14T12:47:17.964Z,28.45
2023-05-14T12:49:44.698Z,29.89
2023-05-14T12:54:43.334Z,30.32
2023-05-14T12:57:10.249Z,29.93
2023-05-14T12:59:36.898Z,28.77
2023-05-14T13:02:03.637Z,28.40
2023-05-14T13:04:30.246Z,28.82
2023-05-14T13:06:56.826Z,29.35
2023-05-14T13:09:23.421Z,29.69
2023-05-14T13:11:50.029Z,29.86
2023-05-14T13:14:17.856Z,29.61
2023-05-14T13:16:45.597Z,29.87
2023-05-14T13:19:12.248Z,29.88
2023-05-14T13:21:38.842Z,30.54
2023-05-14T13:24:05.639Z,30.19
2023-05-14T13:26:32.170Z,30.58
2023-05-14T13:28:58.682Z,29.93
2023-05-14T13:31:25.290Z,29.85
2023-05-14T13:33:51.952Z,30.48
2023-05-14T13:36:18.658Z,31.07
2023-05-14T13:38:48.452Z,31.92
2023-05-14T13:41:15.265Z,31.59
2023-05-14T13:43:41.825Z,31.28
2023-05-14T13:46:08.470Z,30.86
2023-05-14T13:48:37.073Z,30.43
2023-05-14T13:51:03.664Z,30.13
2023-05-14T13:53:30.614Z,30.15
2023-05-14T13:55:58.379Z,29.60
2023-05-14T13:58:25.947Z,29.07
2023-05-14T14:00:53.106Z,28.52
2023-05-14T14:03:20.262Z,27.83
2023-05-14T14:05:46.872Z,27.97
2023-05-14T14:10:48.489Z,27.48
2023-05-14T14:13:15.081Z,26.51
2023-05-14T14:15:41.711Z,26.04
2023-05-14T14:18:08.357Z,26.06
2023-05-14T14:20:35.130Z,26.16
2023-05-14T14:23:01.978Z,26.21
2023-05-14T14:25:28.579Z,26.52
2023-05-14T14:27:55.173Z,26.96
2023-05-14T14:30:21.688Z,27.11
2023-05-14T14:32:49.192Z,27.01
2023-05-14T14:35:17.451Z,26.63
2023-05-14T14:37:48.908Z,27.09
2023-05-14T14:40:16.817Z,27.10
2023-05-14T14:42:43.853Z,26.75
2023-05-14T14:45:11.409Z,27.05
2023-05-14T14:47:38.057Z,26.90
2023-05-14T14:50:05.895Z,26.96
2023-05-14T14:52:32.632Z,26.99
2023-05-14T14:54:59.152Z,27.06
2023-05-14T14:57:26.700Z,27.03
2023-05-14T14:59:53.262Z,27.01
2023-05-14T15:02:19.926Z,27.02
2023-05-14T15:04:46.630Z,27.44
2023-05-14T15:07:13.690Z,27.65
2023-05-14T15:09:40.273Z,27.58
2023-05-14T15:12:08.863Z,27.75
2023-05-14T15:14:35.561Z,27.50
2023-05-14T15:17:02.281Z,27.23
2023-05-14T15:19:29.599Z,26.81
2023-05-14T15:21:56.141Z,27.01
2023-05-14T15:24:25.037Z,27.08
2023-05-14T15:26:53.337Z,27.18
2023-05-14T15:29:20.198Z,26.82
2023-05-14T15:31:46.990Z,27.28
2023-05-14T15:34:13.670Z,27.06
2023-05-14T15:36:40.500Z,26.65
2023-05-14T15:39:10.174Z,26.38
2023-05-14T15:41:37.034Z,25.63
2023-05-14T15:44:03.895Z,25.35
2023-05-14T15:46:31.040Z,25.01
2023-05-14T15:48:58.185Z,24.57
2023-05-14T15:51:24.819Z,24.56
2023-05-14T15:53:53.387Z,24.23
2023-05-14T15:56:21.073Z,23.95
2023-05-14T15:58:48.175Z,23.69
2023-05-14T16:01:14.873Z,23.31
2023-05-14T16:03:41.636Z,23.13
2023-05-14T16:06:08.331Z,22.66
2023-05-14T16:08:34.874Z,22.95
2023-05-14T16:11:01.435Z,22.81
2023-05-14T16:13:27.960Z,22.62
2023-05-14T16:15:54.566Z,22.55
2023-05-14T16:18:22.031Z,22.36
2023-05-14T16:20:48.664Z,22.69
2023-05-14T16:23:15.170Z,22.59
2023-05-14T16:25:41.760Z,22.35
2023-05-14T16:28:08.349Z,22.05
2023-05-14T16:30:34.990Z,22.41
2023-05-14T16:33:01.613Z,21.99
2023-05-14T16:35:28.224Z,22.46
2023-05-14T16:37:54.846Z,22.24
2023-05-14T16:40:23.372Z,22.38
2023-05-14T16:42:51.088Z,22.12
2023-05-14T16:45:17.944Z,22.28
2023-05-14T16:47:44.532Z,22.45
2023-05-14T16:50:11.251Z,22.46
2023-05-14T16:52:37.801Z,22.54
2023-05-14T16:55:04.842Z,22.61
2023-05-14T16:57:31.572Z,22.67
2023-05-14T16:59:58.145Z,22.22
2023-05-14T17:02:24.694Z,22.68
2023-05-14T17:04:51.371Z,22.74
2023-05-14T17:07:18.057Z,22.19
2023-05-14T17:09:44.606Z,22.49
2023-05-14T17:12:13.028Z,22.28
2023-05-14T17:14:39.663Z,21.62
2023-05-14T17:17:06.344Z,22.20
2023-05-14T17:19:32.923Z,22.13
2023-05-14T17:21:59.598Z,21.46
2023-05-14T17:24:26.219Z,21.95
2023-05-14T17:26:53.098Z,21.94
2023-05-14T17:29:20.282Z,21.44
2023-05-14T17:31:48.230Z,21.67
2023-05-14T17:34:14.928Z,21.52
2023-05-14T17:36:41.602Z,21.35
2023-05-14T17:39:08.141Z,21.25
2023-05-14T17:41:35.047Z,21.48
2023-05-14T17:44:01.583Z,21.37
2023-05-14T17:46:28.357Z,21.27
2023-05-14T17:48:56.249Z,21.26
2023-05-14T17:51:22.768Z,21.09
2023-05-14T17:53:49.278Z,20.56
2023-05-14T17:56:17.581Z,20.97
2023-05-14T17:58:44.945Z,20.96
2023-05-14T18:01:11.897Z,20.86
2023-05-14T18:03:38.585Z,20.78
2023-05-14T18:06:05.291Z,20.69
2023-05-14T18:08:31.856Z,20.30
2023-05-14T18:11:00.639Z,20.36
2023-05-14T18:13:27.231Z,20.21
2023-05-14T18:15:54.334Z,20.20
2023-05-14T18:18:21.667Z,20.02
2023-05-14T18:20:49.385Z,19.94
2023-05-14T18:23:16.162Z,19.68
2023-05-14T18:25:42.957Z,19.96
2023-05-14T18:28:09.682Z,19.83
2023-05-14T18:30:36.263Z,19.59
2023-05-14T18:33:03.420Z,19.66
2023-05-14T18:35:30.158Z,19.54
2023-05-14T18:37:56.787Z,19.48
2023-05-14T18:40:23.394Z,19.42
2023-05-14T18:42:49.983Z,19.28
2023-05-14T18:45:16.571Z,19.28
2023-05-14T18:47:43.312Z,19.26
2023-05-14T18:50:10.263Z,19.07
2023-05-14T18:52:36.942Z,18.87
2023-05-14T18:55:03.739Z,18.96
2023-05-14T18:57:32.138Z,18.87
2023-05-14T19:00:01.165Z,18.69
2023-05-14T19:02:28.565Z,18.51
2023-05-14T19:04:55.645Z,18.62
2023-05-14T19:07:22.555Z,18.57
2023-05-14T19:09:49.263Z,18.48
2023-05-14T19:12:16.081Z,18.38
2023-05-14T19:14:42.768Z,18.10
2023-05-14T19:17:09.492Z,18.18
2023-05-14T19:19:36.449Z,17.97
2023-05-14T19:22:03.021Z,17.81
2023-05-14T19:24:30.210Z,17.28
2023-05-14T19:26:56.805Z,17.76
2023-05-14T19:29:23.371Z,17.69
2023-05-14T19:31:50.005Z,17.62
2023-05-14T19:34:16.803Z,17.63
2023-05-14T19:36:43.457Z,17.47
2023-05-14T19:39:10.787Z,17.45
2023-05-14T19:41:37.405Z,17.32
2023-05-14T19:44:04.028Z,17.14
2023-05-14T19:46:30.683Z,17.14
2023-05-14T19:48:57.265Z,17.02
2023-05-14T19:51:23.852Z,16.99
2023-05-14T19:53:50.455Z,16.90
2023-05-14T19:56:17.119Z,16.79
2023-05-14T19:58:44.273Z,16.80
2023-05-14T20:01:11.968Z,16.72
2023-05-14T20:03:38.867Z,16.19
2023-05-14T20:06:06.980Z,16.55
2023-05-14T20:08:33.722Z,16.46
2023-05-14T20:11:00.343Z,16.23
2023-05-14T20:13:27.008Z,16.33
2023-05-14T20:15:55.018Z,16.23
2023-05-14T20:18:21.846Z,16.08
2023-05-14T20:20:49.062Z,16.08
2023-05-14T20:23:15.918Z,15.99
2023-05-14T20:25:43.098Z,15.87
2023-05-14T20:28:10.169Z,15.65
2023-05-14T20:30:36.870Z,15.82
2023-05-14T20:33:04.035Z,15.83
2023-05-14T20:35:31.109Z,15.78
2023-05-14T20:37:57.669Z,15.70
2023-05-14T20:40:25.283Z,15.44
2023-05-14T20:42:52.191Z,15.46
2023-05-14T20:45:19.009Z,14.32
2023-05-14T20:47:45.625Z,15.36
2023-05-14T20:50:13.610Z,15.22
2023-05-14T20:52:40.457Z,15.09
2023-05-14T20:55:07.598Z,15.13
2023-05-14T20:57:34.236Z,15.00
2023-05-14T21:00:02.047Z,15.04
2023-05-14T21:02:28.743Z,14.94
2023-05-14T21:04:55.466Z,14.43
2023-05-14T21:07:22.130Z,14.77
2023-05-14T21:09:52.216Z,14.73
2023-05-14T21:12:19.383Z,14.46
2023-05-14T21:14:46.065Z,14.12
2023-05-14T21:17:12.695Z,14.58
2023-05-14T21:19:39.547Z,14.37
2023-05-14T21:22:06.737Z,14.45
2023-05-14T21:24:33.239Z,14.41
2023-05-14T21:26:59.819Z,13.97
2023-05-14T21:29:26.335Z,14.41
2023-05-14T21:31:52.916Z,14.31
2023-05-14T21:34:19.520Z,14.25
2023-05-14T21:36:46.480Z,14.26
2023-05-14T21:39:13.710Z,14.12
2023-05-14T21:41:40.411Z,13.92
2023-05-14T21:44:06.934Z,14.05
2023-05-14T21:46:33.786Z,13.94
2023-05-14T21:49:00.514Z,13.91
2023-05-14T21:51:27.157Z,13.79
2023-05-14T21:53:53.722Z,13.77
2023-05-14T21:56:21.076Z,13.88
2023-05-14T21:58:47.708Z,13.87
2023-05-14T22:01:14.519Z,13.86
2023-05-14T22:03:41.457Z,13.73
2023-05-14T22:06:08.098Z,13.78
2023-05-14T22:08:34.706Z,13.53
2023-05-14T22:11:01.328Z,13.55
2023-05-14T22:13:28.431Z,13.64
2023-05-14T22:16:01.447Z,13.58
2023-05-14T22:18:36.592Z,13.42
2023-05-14T22:21:04.831Z,13.12
2023-05-14T22:23:31.425Z,13.48
2023-05-14T22:25:58.199Z,13.41
2023-05-14T22:28:24.852Z,13.42
2023-05-14T22:30:51.439Z,13.15
2023-05-14T22:33:19.310Z,12.83
2023-05-14T22:35:46.072Z,13.28
2023-05-14T22:38:13.770Z,13.25
2023-05-14T22:40:40.445Z,13.19
2023-05-14T22:43:06.961Z,13.30
2023-05-14T22:45:33.727Z,13.15
2023-05-14T22:48:00.427Z,12.72
2023-05-14T22:50:26.993Z,13.16
2023-05-14T22:52:53.563Z,13.03
2023-05-14T22:55:20.185Z,12.66
2023-05-14T22:57:46.893Z,13.05
2023-05-14T23:00:13.903Z,12.95
2023-05-14T23:02:40.759Z,12.61
2023-05-14T23:05:10.555Z,12.90
2023-05-14T23:07:37.357Z,12.86
2023-05-14T23:10:04.207Z,12.85
2023-05-14T23:12:30.899Z,12.71
2023-05-14T23:14:59.131Z,12.59
2023-05-14T23:17:26.192Z,12.74
2023-05-14T23:19:53.015Z,12.58
2023-05-14T23:22:19.786Z,12.05
2023-05-14T23:24:46.334Z,12.50
2023-05-14T23:27:12.942Z,12.57
2023-05-14T23:29:39.529Z,12.52
2023-05-14T23:32:06.596Z,12.53
2023-05-14T23:34:33.198Z,12.39
2023-05-14T23:36:59.805Z,12.08
2023-05-14T23:39:26.774Z,12.36
2023-05-14T23:41:53.413Z,12.31
2023-05-14T23:44:20.141Z,12.32
2023-05-14T23:46:46.731Z,12.27
2023-05-14T23:49:13.344Z,11.62
2023-05-14T23:51:39.951Z,12.22
2023-05-14T23:54:06.494Z,12.18
2023-05-14T23:56:34.326Z,12.18
2023-05-14T23:59:01.053Z,12.22
